createdAt,value
2019-03-29T00:00:39.497Z,121.53
2019-03-29T00:02:47.268Z,104.32
2019-03-29T00:04:55.197Z,109.45
2019-03-29T00:07:03.968Z,108.07
2019-03-29T00:09:12.197Z,109.45
2019-03-29T00:11:20.040Z,112.15
2019-03-29T00:13:27.735Z,130.57
2019-03-29T00:15:35.663Z,124.20
2019-03-29T00:17:44.144Z,130.12
2019-03-29T00:19:51.789Z,125.62
2019-03-29T00:21:59.492Z,122.67
2019-03-29T00:24:07.435Z,120.60
2019-03-29T00:26:15.157Z,145.38
2019-03-29T00:28:22.955Z,135.90
2019-03-29T00:30:30.655Z,136.92
2019-03-29T00:32:39.621Z,128.70
2019-03-29T00:34:47.925Z,125.87
2019-03-29T00:36:56.736Z,131.00
2019-03-29T00:39:07.139Z,130.50
2019-03-29T00:41:15.021Z,127.22
2019-03-29T00:43:22.711Z,128.35
2019-03-29T00:45:30.550Z,128.20
2019-03-29T00:47:38.461Z,126.60
2019-03-29T00:49:46.321Z,124.02
2019-03-29T00:51:54.019Z,125.30
2019-03-29T00:54:02.080Z,118.42
2019-03-29T00:56:10.136Z,116.45
2019-03-29T00:58:18.069Z,118.95
2019-03-29T01:00:26.049Z,118.22
2019-03-29T01:02:33.772Z,113.88
2019-03-29T01:04:41.513Z,114.25
2019-03-29T01:06:49.276Z,117.67
2019-03-29T01:08:57.009Z,118.20
2019-03-29T01:11:04.770Z,115.55
2019-03-29T01:13:12.465Z,119.47
2019-03-29T01:15:20.216Z,110.22
2019-03-29T01:17:27.991Z,101.78
2019-03-29T01:19:35.979Z,97.90
2019-03-29T01:21:43.802Z,102.58
2019-03-29T01:23:51.501Z,101.02
2019-03-29T01:25:59.088Z,90.62
2019-03-29T01:28:06.881Z,97.00
2019-03-29T01:30:14.814Z,95.15
2019-03-29T01:32:22.507Z,89.95
2019-03-29T01:34:30.670Z,95.83
2019-03-29T01:36:38.426Z,100.00
2019-03-29T01:38:46.168Z,105.45
2019-03-29T01:40:55.057Z,97.67
2019-03-29T01:43:02.827Z,103.17
2019-03-29T01:45:11.299Z,109.52
2019-03-29T01:47:19.041Z,106.43
2019-03-29T01:49:26.870Z,108.95
2019-03-29T01:51:34.570Z,106.55
2019-03-29T01:53:42.391Z,99.40
2019-03-29T01:55:50.159Z,105.35
2019-03-29T01:57:58.926Z,102.50
2019-03-29T02:00:09.066Z,104.05
2019-03-29T02:02:17.059Z,107.55
2019-03-29T02:04:24.653Z,104.53
2019-03-29T02:06:32.715Z,100.40
2019-03-29T02:08:40.408Z,98.45
2019-03-29T02:10:49.428Z,87.80
2019-03-29T02:12:57.276Z,82.70
2019-03-29T02:15:08.118Z,89.85
2019-03-29T02:17:15.711Z,89.95
2019-03-29T02:19:23.432Z,104.23
2019-03-29T02:21:31.501Z,102.45
2019-03-29T02:23:39.267Z,106.83
2019-03-29T02:25:47.028Z,118.70
2019-03-29T02:27:54.825Z,117.65
2019-03-29T02:30:04.250Z,107.27
2019-03-29T02:32:12.645Z,99.58
2019-03-29T02:34:20.423Z,107.37
2019-03-29T02:36:28.114Z,103.12
2019-03-29T02:38:47.502Z,108.00
2019-03-29T02:40:45.592Z,111.88
2019-03-29T02:42:53.799Z,99.72
2019-03-29T02:45:03.396Z,97.92
2019-03-29T02:47:10.883Z,99.87
2019-03-29T02:49:18.579Z,117.47
2019-03-29T02:51:26.354Z,121.60
2019-03-29T02:53:34.151Z,125.82
2019-03-29T02:55:41.819Z,127.17
2019-03-29T02:57:49.609Z,114.20
2019-03-29T02:59:57.315Z,121.35
2019-03-29T03:02:05.496Z,118.28
2019-03-29T03:04:13.233Z,130.72
2019-03-29T03:06:21.099Z,137.72
2019-03-29T03:08:32.702Z,167.82
2019-03-29T03:10:38.290Z,211.07
2019-03-29T03:12:46.138Z,193.65
2019-03-29T03:14:54.014Z,173.20
2019-03-29T03:17:01.776Z,167.45
2019-03-29T03:19:09.602Z,162.68
2019-03-29T03:21:17.370Z,172.65
2019-03-29T03:23:25.161Z,169.80
2019-03-29T03:25:33.008Z,177.65
2019-03-29T03:27:40.989Z,174.02
2019-03-29T03:29:48.922Z,163.92
2019-03-29T03:31:56.622Z,161.57
2019-03-29T03:34:04.329Z,152.97
2019-03-29T03:36:12.277Z,150.53
2019-03-29T03:38:20.129Z,155.52
2019-03-29T03:40:27.786Z,138.72
2019-03-29T03:42:35.728Z,151.85
2019-03-29T03:44:43.552Z,150.93
2019-03-29T03:46:52.506Z,141.60
2019-03-29T03:49:00.292Z,135.25
2019-03-29T03:51:08.264Z,120.47
2019-03-29T03:53:16.078Z,159.60
2019-03-29T03:55:23.903Z,139.77
2019-03-29T03:57:33.296Z,133.32
2019-03-29T03:59:41.969Z,136.28
2019-03-29T04:01:49.708Z,129.75
2019-03-29T04:03:57.351Z,125.97
2019-03-29T04:06:05.282Z,122.53
2019-03-29T04:08:13.013Z,122.15
2019-03-29T04:10:20.707Z,121.80
2019-03-29T04:12:28.572Z,122.92
2019-03-29T04:14:36.528Z,121.42
2019-03-29T04:16:44.223Z,120.92
2019-03-29T04:18:51.924Z,122.00
2019-03-29T04:20:59.726Z,124.75
2019-03-29T04:23:07.759Z,123.82
2019-03-29T04:25:15.445Z,119.70
2019-03-29T04:27:23.075Z,119.90
2019-03-29T04:29:30.912Z,108.70
2019-03-29T04:31:38.578Z,98.45
2019-03-29T04:33:46.299Z,100.90
2019-03-29T04:35:53.955Z,105.75
2019-03-29T04:38:02.626Z,118.60
2019-03-29T04:40:10.698Z,113.20
2019-03-29T04:42:18.471Z,118.37
2019-03-29T04:44:26.177Z,115.77
2019-03-29T04:46:34.681Z,114.65
2019-03-29T04:48:42.439Z,125.02
2019-03-29T04:50:50.128Z,136.55
2019-03-29T04:52:57.848Z,148.65
2019-03-29T04:55:07.485Z,155.97
2019-03-29T04:57:15.177Z,156.00
2019-03-29T04:59:22.947Z,140.95
2019-03-29T05:01:30.856Z,110.90
2019-03-29T05:03:38.655Z,122.82
2019-03-29T05:05:46.384Z,120.95
2019-03-29T05:07:54.151Z,118.25
2019-03-29T05:10:01.985Z,117.67
2019-03-29T05:12:09.915Z,123.82
2019-03-29T05:14:17.800Z,122.65
2019-03-29T05:16:26.700Z,136.18
2019-03-29T05:18:34.522Z,137.32
2019-03-29T05:20:42.124Z,134.80
2019-03-29T05:22:49.894Z,142.25
2019-03-29T05:24:57.741Z,150.55
2019-03-29T05:27:05.583Z,151.05
2019-03-29T05:29:13.370Z,157.67
2019-03-29T05:31:21.116Z,152.75
2019-03-29T05:33:28.945Z,139.65
2019-03-29T05:35:36.958Z,130.43
2019-03-29T05:37:46.028Z,124.95
2019-03-29T05:39:53.812Z,119.17
2019-03-29T05:42:02.674Z,124.70
2019-03-29T05:44:10.400Z,139.55
2019-03-29T05:46:18.173Z,134.37
2019-03-29T05:48:26.706Z,126.38
2019-03-29T05:50:36.795Z,123.65
2019-03-29T05:52:43.811Z,121.13
2019-03-29T05:54:51.554Z,117.00
2019-03-29T05:56:59.335Z,109.20
2019-03-29T05:59:07.171Z,117.00
2019-03-29T06:01:14.940Z,124.27
2019-03-29T06:03:22.804Z,120.95
2019-03-29T06:05:30.511Z,119.70
2019-03-29T06:07:38.285Z,100.70
2019-03-29T06:09:46.073Z,99.58
2019-03-29T06:11:54.961Z,101.78
2019-03-29T06:14:02.834Z,105.70
2019-03-29T06:16:10.630Z,100.25
2019-03-29T06:18:18.321Z,91.45
2019-03-29T06:20:25.982Z,109.40
2019-03-29T06:22:33.737Z,99.52
2019-03-29T06:24:41.533Z,102.82
2019-03-29T06:26:49.343Z,86.10
2019-03-29T06:28:57.735Z,103.30
2019-03-29T06:31:05.670Z,91.72
2019-03-29T06:33:13.379Z,91.40
2019-03-29T06:35:21.146Z,89.87
2019-03-29T06:37:29.948Z,91.55
2019-03-29T06:39:38.068Z,77.32
2019-03-29T06:41:45.853Z,88.78
2019-03-29T06:43:53.694Z,54.23
2019-03-29T06:46:01.453Z,37.23
2019-03-29T06:48:09.179Z,48.63
2019-03-29T06:50:18.066Z,45.78
2019-03-29T06:52:25.767Z,49.98
2019-03-29T06:54:33.650Z,65.15
2019-03-29T06:56:41.591Z,67.85
2019-03-29T06:58:49.293Z,56.98
2019-03-29T07:00:56.929Z,65.05
2019-03-29T07:03:04.903Z,47.67
2019-03-29T07:05:12.727Z,61.23
2019-03-29T07:07:20.491Z,62.60
2019-03-29T07:09:28.278Z,63.00
2019-03-29T07:11:39.424Z,66.80
2019-03-29T07:13:56.680Z,39.13
2019-03-29T07:15:54.889Z,46.37
2019-03-29T07:18:02.579Z,53.10
2019-03-29T07:20:10.811Z,68.87
2019-03-29T07:22:18.399Z,41.60
2019-03-29T07:24:26.194Z,53.00
2019-03-29T07:26:33.991Z,27.87
2019-03-29T07:28:41.863Z,64.53
2019-03-29T07:30:49.675Z,55.73
2019-03-29T07:52:07.212Z,69.20
2019-03-29T07:54:15.039Z,65.37
2019-03-29T07:56:22.726Z,59.27
2019-03-29T07:58:32.147Z,58.83
2019-03-29T08:00:39.835Z,68.65
2019-03-29T08:02:47.525Z,70.52
2019-03-29T08:04:55.231Z,61.13
2019-03-29T08:07:02.915Z,60.60
2019-03-29T08:09:21.712Z,49.83
2019-03-29T08:11:26.432Z,62.70
2019-03-29T08:13:30.496Z,61.48
2019-03-29T08:15:38.199Z,63.33
2019-03-29T08:17:46.375Z,57.65
2019-03-29T08:20:13.340Z,59.48
2019-03-29T08:22:03.424Z,57.98
2019-03-29T08:24:11.203Z,55.48
2019-03-29T08:26:18.953Z,50.38
2019-03-29T08:28:26.707Z,51.60
2019-03-29T08:30:34.414Z,34.75
2019-03-29T08:32:42.235Z,44.80
2019-03-29T08:34:50.058Z,39.33
2019-03-29T08:36:57.768Z,30.37
2019-03-29T08:39:10.185Z,35.00
2019-03-29T08:41:17.221Z,30.05
2019-03-29T08:43:24.921Z,29.35
2019-03-29T08:45:32.675Z,34.00
2019-03-29T08:47:40.262Z,34.88
2019-03-29T08:49:47.970Z,31.17
2019-03-29T08:51:55.719Z,34.05
2019-03-29T08:54:04.361Z,19.77
2019-03-29T08:56:13.423Z,15.93
2019-03-29T08:58:21.007Z,12.00
2019-03-29T09:00:32.980Z,11.05
2019-03-29T09:02:40.589Z,10.72
2019-03-29T09:04:48.399Z,8.43
2019-03-29T09:06:56.074Z,8.88
2019-03-29T09:09:04.500Z,10.75
2019-03-29T09:11:12.177Z,9.53
2019-03-29T09:13:20.130Z,11.50
2019-03-29T09:15:28.006Z,11.35
2019-03-29T09:17:35.678Z,11.95
2019-03-29T09:19:44.434Z,10.18
2019-03-29T09:21:52.199Z,8.80
2019-03-29T09:24:00.114Z,8.70
2019-03-29T09:26:07.863Z,12.28
2019-03-29T09:28:15.572Z,8.98
2019-03-29T09:30:23.249Z,22.30
2019-03-29T09:32:30.930Z,12.00
2019-03-29T09:34:41.147Z,10.32
2019-03-29T09:36:48.776Z,8.55
2019-03-29T09:38:56.458Z,14.40
2019-03-29T09:41:04.164Z,21.77
2019-03-29T09:43:11.984Z,19.77
2019-03-29T09:45:19.727Z,17.02
2019-03-29T09:47:27.601Z,8.25
2019-03-29T09:49:35.314Z,10.78
2019-03-29T09:51:42.989Z,9.63
2019-03-29T09:53:50.612Z,15.00
2019-03-29T09:55:58.340Z,6.95
2019-03-29T09:58:06.076Z,7.72
2019-03-29T10:00:21.058Z,9.00
2019-03-29T10:02:23.485Z,9.43
2019-03-29T10:04:31.163Z,14.63
2019-03-29T10:06:38.994Z,7.75
2019-03-29T10:08:46.821Z,9.23
2019-03-29T10:10:55.685Z,9.48
2019-03-29T10:13:03.481Z,7.87
2019-03-29T10:15:11.311Z,10.60
2019-03-29T10:17:19.005Z,7.08
2019-03-29T10:19:26.751Z,6.62
2019-03-29T10:21:34.435Z,6.83
2019-03-29T10:23:42.134Z,7.35
2019-03-29T10:25:50.004Z,8.68
2019-03-29T10:27:57.823Z,12.10
2019-03-29T10:30:09.074Z,12.33
2019-03-29T10:32:16.791Z,12.70
2019-03-29T10:34:24.513Z,7.95
2019-03-29T10:36:32.306Z,6.62
2019-03-29T10:38:40.217Z,8.90
2019-03-29T10:40:47.908Z,6.85
2019-03-29T10:42:58.064Z,10.10
2019-03-29T10:45:05.984Z,10.32
2019-03-29T10:47:13.574Z,12.60
2019-03-29T10:49:21.270Z,14.50
2019-03-29T10:51:29.003Z,12.80
2019-03-29T10:53:36.691Z,12.68
2019-03-29T10:55:44.389Z,14.47
2019-03-29T10:57:52.971Z,13.05
2019-03-29T11:00:00.652Z,12.47
2019-03-29T11:02:09.770Z,12.53
2019-03-29T11:04:17.585Z,8.48
2019-03-29T11:06:25.274Z,8.00
2019-03-29T11:08:32.858Z,7.15
2019-03-29T11:10:41.609Z,7.92
2019-03-29T11:12:49.195Z,8.13
2019-03-29T11:14:56.883Z,10.53
2019-03-29T11:17:04.645Z,5.78
2019-03-29T11:19:12.436Z,6.35
2019-03-29T11:21:20.180Z,7.33
2019-03-29T11:23:27.898Z,11.55
2019-03-29T11:25:35.583Z,8.38
2019-03-29T11:27:43.265Z,6.22
2019-03-29T11:29:50.970Z,9.03
2019-03-29T11:31:58.722Z,7.78
2019-03-29T11:34:07.275Z,9.40
2019-03-29T11:36:15.241Z,6.80
2019-03-29T11:38:23.050Z,8.48
2019-03-29T11:40:30.634Z,12.03
2019-03-29T11:42:38.359Z,11.70
2019-03-29T11:44:46.040Z,7.45
2019-03-29T11:46:53.874Z,8.60
2019-03-29T11:49:01.586Z,6.65
2019-03-29T11:51:19.217Z,6.97
2019-03-29T11:53:20.012Z,11.60
2019-03-29T11:55:27.955Z,7.22
2019-03-29T11:57:35.804Z,6.60
2019-03-29T11:59:44.350Z,5.37
2019-03-29T12:01:52.127Z,11.63
2019-03-29T12:03:59.811Z,9.03
2019-03-29T12:06:07.725Z,5.08
2019-03-29T12:08:15.436Z,7.90
2019-03-29T12:10:23.133Z,12.07
2019-03-29T12:12:30.891Z,10.40
2019-03-29T12:14:38.620Z,5.83
2019-03-29T12:16:46.398Z,8.20
2019-03-29T12:18:54.078Z,12.93
2019-03-29T12:21:03.007Z,10.40
2019-03-29T12:23:10.782Z,6.60
2019-03-29T12:25:18.433Z,18.73
2019-03-29T12:27:26.213Z,7.30
2019-03-29T12:29:33.992Z,12.88
2019-03-29T12:31:41.678Z,8.53
2019-03-29T12:33:49.393Z,9.55
2019-03-29T12:35:57.079Z,12.03
2019-03-29T12:38:05.183Z,9.60
2019-03-29T12:40:13.266Z,8.83
2019-03-29T12:42:21.040Z,6.97
2019-03-29T12:44:28.729Z,6.70
2019-03-29T12:46:36.584Z,10.80
2019-03-29T12:48:44.340Z,13.28
2019-03-29T12:50:52.088Z,12.10
2019-03-29T12:52:59.826Z,9.80
2019-03-29T12:55:07.919Z,11.60
2019-03-29T12:57:15.607Z,6.80
2019-03-29T12:59:23.385Z,14.95
2019-03-29T13:01:39.345Z,15.05
2019-03-29T13:03:41.348Z,14.35
2019-03-29T13:05:49.067Z,9.18
2019-03-29T13:07:56.750Z,9.23
2019-03-29T13:10:09.603Z,15.95
2019-03-29T13:12:17.390Z,15.65
2019-03-29T13:14:25.091Z,6.85
2019-03-29T13:16:32.767Z,7.72
2019-03-29T13:18:40.485Z,10.72
2019-03-29T13:20:48.244Z,8.80
2019-03-29T13:22:55.901Z,14.38
2019-03-29T13:25:07.207Z,10.72
2019-03-29T13:27:13.730Z,17.32
2019-03-29T13:29:21.579Z,11.18
2019-03-29T13:31:29.351Z,18.87
2019-03-29T13:33:38.166Z,6.83
2019-03-29T13:35:46.123Z,8.10
2019-03-29T13:37:53.835Z,5.72
2019-03-29T13:40:01.515Z,6.70
2019-03-29T13:42:10.654Z,7.90
2019-03-29T13:44:24.068Z,18.92
2019-03-29T13:46:27.930Z,11.38
2019-03-29T13:48:35.655Z,6.47
2019-03-29T13:50:43.376Z,12.58
2019-03-29T13:52:51.117Z,8.80
2019-03-29T13:54:58.859Z,9.75
2019-03-29T13:57:06.566Z,9.38
2019-03-29T13:59:14.317Z,9.33
2019-03-29T14:01:21.997Z,6.80
2019-03-29T14:03:30.625Z,10.30
2019-03-29T14:05:38.589Z,12.63
2019-03-29T14:07:46.366Z,7.25
2019-03-29T14:09:54.076Z,10.30
2019-03-29T14:12:01.899Z,8.63
2019-03-29T14:14:09.655Z,10.28
2019-03-29T14:16:17.384Z,11.55
2019-03-29T14:18:25.367Z,11.25
2019-03-29T14:20:36.185Z,11.73
2019-03-29T14:22:43.802Z,14.98
2019-03-29T14:24:54.072Z,19.45
2019-03-29T14:27:00.915Z,10.65
2019-03-29T14:29:08.699Z,14.63
2019-03-29T14:31:18.141Z,17.37
2019-03-29T14:33:25.725Z,12.30
2019-03-29T14:35:33.517Z,13.62
2019-03-29T14:37:41.210Z,21.40
2019-03-29T14:39:48.901Z,22.87
2019-03-29T14:41:56.648Z,13.85
2019-03-29T14:44:05.515Z,8.78
2019-03-29T14:46:13.200Z,22.77
2019-03-29T14:48:21.018Z,10.10
2019-03-29T14:50:28.846Z,16.65
2019-03-29T14:52:36.699Z,10.75
2019-03-29T14:54:44.411Z,9.55
2019-03-29T14:56:52.297Z,8.48
2019-03-29T14:59:00.116Z,18.12
2019-03-29T15:01:07.861Z,15.18
2019-03-29T15:03:15.979Z,18.85
2019-03-29T15:05:23.690Z,8.83
2019-03-29T15:07:31.369Z,11.60
2019-03-29T15:09:39.067Z,11.45
2019-03-29T15:11:46.760Z,15.63
2019-03-29T15:13:54.453Z,24.00
2019-03-29T15:16:02.211Z,18.17
2019-03-29T15:18:10.088Z,19.12
2019-03-29T15:20:17.794Z,20.23
2019-03-29T15:22:25.486Z,13.43
2019-03-29T15:24:33.238Z,24.02
2019-03-29T15:26:40.956Z,23.18
2019-03-29T15:28:48.692Z,34.27
2019-03-29T15:30:56.383Z,29.67
2019-03-29T15:33:04.168Z,25.35
2019-03-29T15:35:12.165Z,26.90
2019-03-29T15:37:19.855Z,14.13
2019-03-29T15:39:27.714Z,27.37
2019-03-29T15:41:35.659Z,31.15
2019-03-29T15:43:43.602Z,33.28
2019-03-29T15:45:51.551Z,29.37
2019-03-29T15:47:59.341Z,29.50
2019-03-29T15:50:08.243Z,24.25
2019-03-29T15:52:15.994Z,28.77
2019-03-29T15:54:23.582Z,17.70
2019-03-29T15:56:31.367Z,14.55
2019-03-29T15:58:40.232Z,12.80
2019-03-29T16:00:47.986Z,27.93
2019-03-29T16:02:55.761Z,30.23
2019-03-29T16:05:03.740Z,20.30
2019-03-29T16:07:12.429Z,33.40
2019-03-29T16:09:20.213Z,26.75
2019-03-29T16:11:28.138Z,19.05
2019-03-29T16:13:35.727Z,11.75
2019-03-29T16:15:43.504Z,27.20
2019-03-29T16:17:51.223Z,30.32
2019-03-29T16:19:58.985Z,23.77
2019-03-29T16:22:06.666Z,23.62
2019-03-29T16:24:14.487Z,24.18
2019-03-29T16:26:22.176Z,33.58
2019-03-29T16:28:29.751Z,20.88
2019-03-29T16:30:37.551Z,23.27
2019-03-29T16:32:45.502Z,36.48
2019-03-29T16:34:53.190Z,22.80
2019-03-29T16:37:00.883Z,40.45
2019-03-29T16:39:09.325Z,41.58
2019-03-29T16:41:17.010Z,36.77
2019-03-29T16:43:24.732Z,29.95
2019-03-29T16:45:46.838Z,30.05
2019-03-29T16:47:42.650Z,43.35
2019-03-29T16:49:50.343Z,39.63
2019-03-29T16:51:58.017Z,42.08
2019-03-29T16:54:06.022Z,23.30
2019-03-29T16:56:13.743Z,41.90
2019-03-29T16:58:21.414Z,39.20
2019-03-29T17:00:28.991Z,45.35
2019-03-29T17:02:36.800Z,39.42
2019-03-29T17:04:44.375Z,48.35
2019-03-29T17:06:52.144Z,26.27
2019-03-29T17:08:59.841Z,20.02
2019-03-29T17:11:07.413Z,35.17
2019-03-29T17:13:15.086Z,40.17
2019-03-29T17:15:22.794Z,43.15
2019-03-29T17:17:30.463Z,42.38
2019-03-29T17:19:38.143Z,44.13
2019-03-29T17:21:46.010Z,42.53
2019-03-29T17:23:53.779Z,45.10
2019-03-29T17:26:01.423Z,47.65
2019-03-29T17:28:10.206Z,46.70
2019-03-29T17:30:22.592Z,43.38
2019-03-29T17:32:30.260Z,39.45
2019-03-29T17:34:38.049Z,42.00
2019-03-29T17:36:45.626Z,47.90
2019-03-29T17:38:53.303Z,42.95
2019-03-29T17:41:02.801Z,37.90
2019-03-29T17:43:10.695Z,39.55
2019-03-29T17:45:18.435Z,43.40
2019-03-29T17:47:26.204Z,45.23
2019-03-29T17:49:33.876Z,48.20
2019-03-29T17:51:41.616Z,40.28
2019-03-29T17:53:49.436Z,36.25
2019-03-29T17:55:57.470Z,42.58
2019-03-29T17:58:05.528Z,40.10
2019-03-29T18:00:15.405Z,49.85
2019-03-29T18:02:23.512Z,40.08
2019-03-29T18:04:31.160Z,41.98
2019-03-29T18:06:38.921Z,48.17
2019-03-29T18:08:46.661Z,49.40
2019-03-29T18:10:55.271Z,45.35
2019-03-29T18:13:02.999Z,49.40
2019-03-29T18:15:11.799Z,54.98
2019-03-29T18:17:19.441Z,54.88
2019-03-29T18:19:27.229Z,54.13
2019-03-29T18:21:34.899Z,57.83
2019-03-29T18:23:45.630Z,50.90
2019-03-29T18:25:54.594Z,57.25
2019-03-29T18:28:02.384Z,59.63
2019-03-29T18:30:12.241Z,65.90
2019-03-29T18:32:20.906Z,53.63
2019-03-29T18:34:28.653Z,54.03
2019-03-29T18:36:36.899Z,56.13
2019-03-29T18:38:47.310Z,52.15
2019-03-29T18:40:55.145Z,56.13
2019-03-29T18:43:03.178Z,59.45
2019-03-29T18:45:12.831Z,57.25
2019-03-29T18:47:20.472Z,63.13
2019-03-29T18:49:28.124Z,63.42
2019-03-29T18:51:35.888Z,48.28
2019-03-29T18:53:43.564Z,53.80
2019-03-29T18:55:51.342Z,54.65
2019-03-29T18:57:59.135Z,57.43
2019-03-29T19:00:08.725Z,61.53
2019-03-29T19:02:16.377Z,59.08
2019-03-29T19:04:24.145Z,60.00
2019-03-29T19:06:32.170Z,58.48
2019-03-29T19:08:39.847Z,57.58
2019-03-29T19:10:47.555Z,59.03
2019-03-29T19:12:55.617Z,60.30
2019-03-29T19:15:03.830Z,63.63
2019-03-29T19:17:11.561Z,64.62
2019-03-29T19:19:19.422Z,59.98
2019-03-29T19:21:27.253Z,55.88
2019-03-29T19:23:35.007Z,54.23
2019-03-29T19:25:42.820Z,50.38
2019-03-29T19:27:50.495Z,50.45
2019-03-29T19:29:58.209Z,49.77
2019-03-29T19:32:05.986Z,50.52
2019-03-29T19:34:13.732Z,51.65
2019-03-29T19:36:21.425Z,57.60
2019-03-29T19:38:29.313Z,59.20
2019-03-29T19:40:37.004Z,60.23
2019-03-29T19:42:44.764Z,58.50
2019-03-29T19:44:52.539Z,56.28
2019-03-29T19:47:12.825Z,54.98
2019-03-29T19:49:09.690Z,57.67
2019-03-29T19:51:18.437Z,56.40
2019-03-29T19:53:26.248Z,55.58
2019-03-29T19:55:34.070Z,58.52
2019-03-29T19:57:41.801Z,57.50
2019-03-29T19:59:49.475Z,59.65
2019-03-29T20:01:57.266Z,68.05
2019-03-29T20:04:09.456Z,56.40
2019-03-29T20:06:14.690Z,54.27
2019-03-29T20:08:22.383Z,52.98
2019-03-29T20:10:30.132Z,51.18
2019-03-29T20:12:37.940Z,51.40
2019-03-29T20:14:46.594Z,54.00
2019-03-29T20:16:55.397Z,53.98
2019-03-29T20:19:03.130Z,55.12
2019-03-29T20:21:10.842Z,52.85
2019-03-29T20:23:18.587Z,54.03
2019-03-29T20:25:26.772Z,66.33
2019-03-29T20:27:35.607Z,83.62
2019-03-29T20:29:43.304Z,110.00
2019-03-29T20:31:51.008Z,225.35
2019-03-29T20:34:00.751Z,200.85
2019-03-29T20:36:08.242Z,137.92
2019-03-29T20:38:15.940Z,152.68
2019-03-29T20:40:23.839Z,114.92
2019-03-29T20:42:32.721Z,140.35
2019-03-29T20:44:40.321Z,165.90
2019-03-29T20:46:49.239Z,124.50
2019-03-29T20:48:57.003Z,100.33
2019-03-29T20:51:04.764Z,84.07
2019-03-29T20:53:12.505Z,71.70
2019-03-29T20:55:20.197Z,73.40
2019-03-29T20:57:27.878Z,71.95
2019-03-29T20:59:36.795Z,83.55
2019-03-29T21:01:44.474Z,78.95
2019-03-29T21:03:52.153Z,82.70
2019-03-29T21:06:01.057Z,83.12
2019-03-29T21:08:07.749Z,81.63
2019-03-29T21:10:15.713Z,77.58
2019-03-29T21:12:23.327Z,79.55
2019-03-29T21:14:31.015Z,86.22
2019-03-29T21:16:40.673Z,95.20
2019-03-29T21:18:48.401Z,107.37
2019-03-29T21:20:57.355Z,118.37
2019-03-29T21:23:05.220Z,101.82
2019-03-29T21:25:13.191Z,100.87
2019-03-29T21:27:20.963Z,104.32
2019-03-29T21:29:29.638Z,104.40
2019-03-29T21:31:37.450Z,105.80
2019-03-29T21:33:45.312Z,108.05
2019-03-29T21:35:52.997Z,115.82
2019-03-29T21:38:00.725Z,112.72
2019-03-29T21:40:09.822Z,138.80
2019-03-29T21:42:20.498Z,169.60
2019-03-29T21:44:28.315Z,180.85
2019-03-29T21:46:36.071Z,179.95
2019-03-29T21:48:43.766Z,192.98
2019-03-29T21:50:51.487Z,173.93
2019-03-29T21:52:59.172Z,154.47
2019-03-29T21:55:07.757Z,140.32
2019-03-29T21:57:15.487Z,147.00
2019-03-29T21:59:25.122Z,136.72
2019-03-29T22:01:32.985Z,132.82
2019-03-29T22:03:40.596Z,86.15
2019-03-29T22:05:48.352Z,88.52
2019-03-29T22:07:56.022Z,99.50
2019-03-29T22:10:06.798Z,102.32
2019-03-29T22:12:17.115Z,92.12
2019-03-29T22:14:24.871Z,91.28
2019-03-29T22:16:32.681Z,102.27
2019-03-29T22:18:41.568Z,95.90
2019-03-29T22:20:49.240Z,103.75
2019-03-29T22:22:58.174Z,71.77
2019-03-29T22:25:09.734Z,71.82
2019-03-29T22:27:17.410Z,77.95
2019-03-29T22:29:25.268Z,76.12
2019-03-29T22:31:32.946Z,66.47
2019-03-29T22:33:41.811Z,47.85
2019-03-29T22:35:49.406Z,44.13
2019-03-29T22:37:57.148Z,47.23
2019-03-29T22:40:08.020Z,46.90
2019-03-29T22:42:15.719Z,42.58
2019-03-29T22:44:23.388Z,46.60
2019-03-29T22:46:31.133Z,48.73
2019-03-29T22:48:51.576Z,43.68
2019-03-29T22:50:49.839Z,47.10
2019-03-29T22:52:57.515Z,47.10
2019-03-29T22:55:09.478Z,45.52
2019-03-29T22:57:17.231Z,26.85
2019-03-29T22:59:24.895Z,42.38
2019-03-29T23:01:37.224Z,40.17
2019-03-29T23:03:45.035Z,42.65
2019-03-29T23:05:52.784Z,29.02
2019-03-29T23:08:00.510Z,35.50
2019-03-29T23:10:09.711Z,40.05
2019-03-29T23:12:17.453Z,46.88
2019-03-29T23:14:25.231Z,53.63
2019-03-29T23:16:32.897Z,50.20
2019-03-29T23:18:40.570Z,50.60
2019-03-29T23:20:48.594Z,46.60
2019-03-29T23:22:56.400Z,48.90
2019-03-29T23:25:05.281Z,50.63
2019-03-29T23:27:13.943Z,50.20
2019-03-29T23:29:21.613Z,48.90
2019-03-29T23:31:29.254Z,46.75
2019-03-29T23:33:37.054Z,47.30
2019-03-29T23:35:44.796Z,48.98
2019-03-29T23:37:53.643Z,47.10
2019-03-29T23:40:01.394Z,48.83
2019-03-29T23:42:09.330Z,49.83
2019-03-29T23:44:17.081Z,49.18
2019-03-29T23:46:25.744Z,50.63
2019-03-29T23:48:33.489Z,51.05
2019-03-29T23:50:41.159Z,46.08
2019-03-29T23:52:48.913Z,46.68
2019-03-29T23:54:56.880Z,46.70
2019-03-29T23:57:04.576Z,47.67
2019-03-29T23:59:12.350Z,45.25
